Time;durP1;ratioP1;P1;durP2;ratioP2;P2;SDS_P1;SDS_P2;PMS_P1;PMS_P2;Temp;Humidity;BMP_temperature;BMP_pressure;BME280_temperature;BME280_humidity;BME280_pressure;Samples;Min_cycle;Max_cycle;Signal;HPM_P1;HPM_P2
2021/04/13 00:01:28;;;;;;;25.85;13.52;;;1.70;99.90;;;;;;5113782;28;20024;-77
2021/04/13 00:03:53;;;;;;;53.92;22.27;;;1.70;99.90;;;;;;5113449;28;20071;-77
2021/04/13 00:06:42;;;;;;;40.90;18.77;;;1.70;99.90;;;;;;5113384;28;20469;-78
2021/04/13 00:09:11;;;;;;;43.63;21.05;;;1.60;99.90;;;;;;5113404;28;20027;-77
2021/04/13 00:11:39;;;;;;;25.52;13.38;;;1.50;99.90;;;;;;5113122;28;20027;-78
2021/04/13 00:14:11;;;;;;;25.80;15.85;;;1.40;99.90;;;;;;5113156;28;20488;-77
2021/04/13 00:16:37;;;;;;;18.95;10.68;;;1.40;99.90;;;;;;5114494;28;20015;-78
2021/04/13 00:19:05;;;;;;;20.00;11.20;;;1.40;99.90;;;;;;5113217;28;20430;-77
2021/04/13 00:21:36;;;;;;;20.65;12.38;;;1.30;99.90;;;;;;5113061;28;20461;-77
2021/04/13 00:24:25;;;;;;;25.58;15.52;;;1.30;99.90;;;;;;5114037;28;20035;-76
2021/04/13 00:26:53;;;;;;;21.15;12.23;;;1.20;99.90;;;;;;5112414;28;20504;-76
2021/04/13 00:29:22;;;;;;;16.27;9.93;;;1.20;99.90;;;;;;5102207;28;20481;-77
2021/04/13 00:31:49;;;;;;;24.45;12.32;;;1.20;99.90;;;;;;5093478;28;20028;-76
2021/04/13 00:34:17;;;;;;;22.67;12.43;;;1.10;99.90;;;;;;5093811;28;20077;-76
2021/04/13 00:36:44;;;;;;;20.48;10.27;;;1.20;99.90;;;;;;5092341;28;20062;-77
2021/04/13 00:39:23;;;;;;;21.33;11.48;;;1.20;99.90;;;;;;5092297;28;20020;-76
2021/04/13 00:42:06;;;;;;;11.15;6.88;;;1.10;99.90;;;;;;5092305;28;20028;-76
2021/04/13 00:44:40;;;;;;;16.52;9.40;;;1.10;99.90;;;;;;5092162;28;20068;-76
2021/04/13 00:47:12;;;;;;;20.73;10.82;;;1.10;99.90;;;;;;5092288;28;20035;-76
2021/04/13 00:49:46;;;;;;;8.27;5.30;;;1.00;99.90;;;;;;5091893;28;20012;-77
2021/04/13 00:52:16;;;;;;;7.35;5.22;;;0.90;99.90;;;;;;5092206;28;20042;-78
2021/04/13 00:54:46;;;;;;;9.35;5.45;;;0.90;99.90;;;;;;5091848;28;20020;-78
2021/04/13 00:57:20;;;;;;;8.07;5.28;;;0.90;99.90;;;;;;5093421;28;20028;-78
2021/04/13 00:59:48;;;;;;;13.73;7.15;;;0.90;99.90;;;;;;5092013;28;20508;-78
2021/04/13 01:02:22;;;;;;;11.90;7.90;;;1.00;99.90;;;;;;5092045;28;20115;-78
2021/04/13 01:04:58;;;;;;;12.65;7.88;;;0.90;99.90;;;;;;5091743;28;20036;-78
2021/04/13 01:07:45;;;;;;;9.18;4.82;;;0.90;99.90;;;;;;5091727;28;20465;-77
2021/04/13 01:10:29;;;;;;;11.00;6.78;;;1.00;99.90;;;;;;5091775;28;20056;-78
2021/04/13 01:13:11;;;;;;;7.40;5.47;;;1.00;99.90;;;;;;5091819;28;20031;-78
2021/04/13 01:15:39;;;;;;;6.97;5.57;;;0.90;99.90;;;;;;5091601;28;20466;-78
2021/04/13 01:18:08;;;;;;;9.05;6.30;;;0.90;99.90;;;;;;5091733;28;20054;-78
2021/04/13 01:21:02;;;;;;;11.82;6.80;;;0.90;99.90;;;;;;5091673;28;20115;-78
2021/04/13 01:23:37;;;;;;;8.02;5.45;;;0.90;99.90;;;;;;5089042;28;20126;-78
2021/04/13 01:26:05;;;;;;;7.32;4.70;;;0.90;99.90;;;;;;5091619;28;20031;-78
2021/04/13 01:28:34;;;;;;;8.48;5.00;;;1.00;99.90;;;;;;5092772;28;20389;-78
2021/04/13 01:31:17;;;;;;;12.27;7.47;;;1.00;99.90;;;;;;5092737;28;20225;-78
2021/04/13 01:33:48;;;;;;;7.60;6.15;;;0.90;99.90;;;;;;5092826;28;20138;-77
2021/04/13 01:36:22;;;;;;;6.70;6.00;;;0.90;99.90;;;;;;5091849;28;20385;-78
2021/04/13 01:39:09;;;;;;;9.57;7.22;;;0.90;99.90;;;;;;5091584;28;20029;-78
2021/04/13 01:41:56;;;;;;;6.60;4.72;;;0.90;99.90;;;;;;5091348;28;20476;-78
2021/04/13 01:44:27;;;;;;;8.98;5.00;;;0.80;99.90;;;;;;5096602;28;20032;-78
2021/04/13 01:46:53;;;;;;;7.65;5.03;;;0.90;99.90;;;;;;5095725;28;20020;-78
2021/04/13 01:49:19;;;;;;;6.10;5.38;;;0.80;99.90;;;;;;5095526;28;20070;-79
2021/04/13 01:51:45;;;;;;;7.97;5.30;;;0.80;99.90;;;;;;5096823;28;20554;-79
2021/04/13 01:54:15;;;;;;;7.78;5.90;;;0.80;99.90;;;;;;5096798;28;20496;-78
2021/04/13 01:56:57;;;;;;;8.52;5.55;;;0.80;99.90;;;;;;5095497;28;20490;-78
2021/04/13 01:59:42;;;;;;;5.72;4.63;;;0.80;99.90;;;;;;5095407;28;20016;-78
2021/04/13 02:02:26;;;;;;;6.53;4.70;;;0.80;99.90;;;;;;5095409;28;20495;-78
2021/04/13 02:04:54;;;;;;;11.07;7.03;;;0.80;99.90;;;;;;5096484;28;20149;-77
2021/04/13 02:10:34;;;;;;;7.70;5.85;;;0.70;99.90;;;;;;5095959;28;20032;-78
2021/04/13 02:13:20;;;;;;;7.50;4.28;;;0.80;99.90;;;;;;5096433;28;20024;-78
2021/04/13 02:15:55;;;;;;;7.43;5.38;;;0.80;99.90;;;;;;5094984;28;20046;-78
2021/04/13 02:18:29;;;;;;;8.10;5.03;;;0.80;99.90;;;;;;5096509;28;20084;-78
2021/04/13 02:20:55;;;;;;;7.82;5.43;;;0.70;99.90;;;;;;5096351;28;20489;-78
2021/04/13 02:23:27;;;;;;;10.32;7.35;;;0.60;99.90;;;;;;5096185;28;20382;-77
2021/04/13 02:25:54;;;;;;;6.05;5.22;;;0.70;99.90;;;;;;5096254;28;20381;-78
2021/04/13 02:28:20;;;;;;;8.45;6.57;;;0.70;99.90;;;;;;5094920;28;20043;-78
2021/04/13 02:30:47;;;;;;;7.72;5.10;;;0.80;99.90;;;;;;5096213;28;20105;-78
2021/04/13 02:33:32;;;;;;;16.42;8.30;;;0.70;99.90;;;;;;5094603;28;20020;-78
2021/04/13 02:36:06;;;;;;;9.38;5.43;;;0.70;99.90;;;;;;5094791;28;20078;-78
2021/04/13 02:38:33;;;;;;;8.05;5.68;;;0.70;99.90;;;;;;5095991;28;20035;-78
2021/04/13 02:41:15;;;;;;;6.57;4.93;;;0.70;99.90;;;;;;5094488;28;20082;-78
2021/04/13 02:43:46;;;;;;;9.82;5.35;;;0.60;99.90;;;;;;5095885;28;20036;-78
2021/04/13 02:46:19;;;;;;;10.38;5.40;;;0.60;99.90;;;;;;5094823;28;20016;-78
2021/04/13 02:48:53;;;;;;;25.05;11.55;;;0.60;99.90;;;;;;5094735;28;20153;-78
2021/04/13 02:51:21;;;;;;;16.65;8.75;;;0.60;99.90;;;;;;5095927;28;20103;-78
2021/04/13 02:53:54;;;;;;;14.65;7.60;;;0.60;99.90;;;;;;5095549;28;20024;-78
2021/04/13 02:56:35;;;;;;;10.52;6.20;;;0.70;99.90;;;;;;5094352;28;20016;-78
2021/04/13 02:59:13;;;;;;;8.35;5.40;;;0.70;99.90;;;;;;5095392;28;20032;-77
2021/04/13 03:01:48;;;;;;;20.35;11.68;;;0.60;99.90;;;;;;5094411;28;20397;-78
2021/04/13 03:04:15;;;;;;;13.35;8.13;;;0.60;99.90;;;;;;5095519;28;20032;-77
2021/04/13 03:06:46;;;;;;;8.23;5.65;;;0.70;99.90;;;;;;5094233;28;20035;-78
2021/04/13 03:09:14;;;;;;;10.43;6.15;;;0.60;99.90;;;;;;5094174;28;20073;-78
2021/04/13 03:12:08;;;;;;;12.05;6.45;;;0.70;99.90;;;;;;5094052;28;20036;-78
2021/04/13 03:14:37;;;;;;;8.63;5.97;;;0.70;99.90;;;;;;5093628;28;20028;-77
2021/04/13 03:17:09;;;;;;;8.68;5.35;;;0.60;99.90;;;;;;5095123;28;20085;-78
2021/04/13 03:19:35;;;;;;;5.93;4.57;;;0.60;99.90;;;;;;5093938;28;20028;-78
2021/04/13 03:22:05;;;;;;;5.30;4.53;;;0.50;99.90;;;;;;5093840;28;20016;-78
2021/04/13 03:24:35;;;;;;;5.75;4.55;;;0.50;99.90;;;;;;5093760;28;20036;-78
2021/04/13 03:27:05;;;;;;;6.45;4.95;;;0.50;99.90;;;;;;5093870;28;20075;-79
2021/04/13 03:29:40;;;;;;;6.18;5.07;;;0.50;99.90;;;;;;5094869;28;20034;-78
2021/04/13 03:32:07;;;;;;;6.85;4.32;;;0.60;99.90;;;;;;5093774;28;20119;-78
2021/04/13 03:34:33;;;;;;;5.07;3.80;;;0.60;99.90;;;;;;5093528;28;20454;-78
2021/04/13 03:36:59;;;;;;;4.50;3.90;;;0.40;99.90;;;;;;5093603;28;20012;-79
2021/04/13 03:39:32;;;;;;;6.85;5.28;;;0.40;99.90;;;;;;5093410;28;20048;-78
2021/04/13 03:41:59;;;;;;;6.30;4.82;;;0.30;99.90;;;;;;5093475;28;20024;-78
2021/04/13 03:44:26;;;;;;;6.40;4.75;;;0.30;99.90;;;;;;5093354;28;20089;-78
2021/04/13 03:46:53;;;;;;;8.32;5.18;;;0.40;99.90;;;;;;5094557;28;20103;-78
2021/04/13 03:49:31;;;;;;;6.95;5.38;;;0.40;99.90;;;;;;5093235;28;20012;-79
2021/04/13 03:52:01;;;;;;;6.82;4.00;;;0.40;99.90;;;;;;5094574;28;20024;-78
2021/04/13 03:54:30;;;;;;;7.15;4.78;;;0.40;99.90;;;;;;5094377;28;20024;-78
2021/04/13 03:56:56;;;;;;;10.57;4.57;;;0.40;99.90;;;;;;5092535;28;20020;-78
2021/04/13 03:59:28;;;;;;;6.47;4.35;;;0.40;99.90;;;;;;5089788;28;20028;-78
2021/04/13 04:01:54;;;;;;;7.22;4.70;;;0.40;99.90;;;;;;5091828;28;20464;-78
2021/04/13 04:04:36;;;;;;;4.00;3.35;;;0.40;99.90;;;;;;5091056;28;20143;-78
2021/04/13 04:07:47;;;;;;;4.32;3.92;;;0.40;99.90;;;;;;5091954;28;20396;-78
2021/04/13 04:10:31;;;;;;;4.18;3.05;;;0.30;99.90;;;;;;5093312;28;20035;-78
2021/04/13 04:13:06;;;;;;;25.90;9.32;;;0.30;99.90;;;;;;5094080;28;20032;-78
2021/04/13 04:15:45;;;;;;;5.90;5.10;;;0.40;99.90;;;;;;5094111;28;20469;-78
2021/04/13 04:18:37;;;;;;;3.85;3.47;;;0.30;99.90;;;;;;5092727;28;20056;-78
2021/04/13 04:21:31;;;;;;;4.40;3.83;;;0.30;99.90;;;;;;5092733;28;20032;-77
2021/04/13 04:24:20;;;;;;;3.88;3.10;;;0.30;99.90;;;;;;5093839;28;20047;-77
2021/04/13 04:26:51;;;;;;;5.88;3.95;;;0.30;99.90;;;;;;5092525;28;20073;-78
2021/04/13 04:29:29;;;;;;;3.33;3.03;;;0.30;99.90;;;;;;5092659;28;20092;-78
2021/04/13 04:32:08;;;;;;;5.10;4.20;;;0.30;99.90;;;;;;5093974;28;20103;-77
2021/04/13 04:34:34;;;;;;;5.30;3.63;;;0.30;99.90;;;;;;5092532;28;20389;-77
2021/04/13 04:36:59;;;;;;;4.18;3.80;;;0.30;99.90;;;;;;5092618;28;20093;-77
2021/04/13 04:39:36;;;;;;;4.40;4.00;;;0.30;99.90;;;;;;5092557;28;20062;-77
2021/04/13 04:42:29;;;;;;;5.18;4.15;;;0.30;99.90;;;;;;5087405;28;20016;-77
2021/04/13 04:45:14;;;;;;;5.93;4.50;;;0.30;99.90;;;;;;5092868;28;20059;-77
2021/04/13 04:47:42;;;;;;;6.40;5.32;;;0.30;99.90;;;;;;5090640;28;20089;-77
2021/04/13 04:50:11;;;;;;;6.88;4.65;;;0.40;99.90;;;;;;5093004;28;20022;-77
2021/04/13 04:52:37;;;;;;;4.63;4.20;;;0.30;99.90;;;;;;5091881;28;20059;-77
2021/04/13 04:55:03;;;;;;;6.57;4.95;;;0.30;99.90;;;;;;5092029;28;20059;-78
2021/04/13 04:57:29;;;;;;;4.28;3.65;;;0.30;99.90;;;;;;5092637;28;20489;-78
2021/04/13 04:59:55;;;;;;;6.05;4.25;;;0.30;99.90;;;;;;5091623;28;20070;-77
2021/04/13 05:02:21;;;;;;;3.95;3.28;;;0.30;99.90;;;;;;5093002;28;20077;-77
2021/04/13 05:04:47;;;;;;;5.00;3.92;;;0.40;99.90;;;;;;5091954;28;20084;-77
2021/04/13 05:07:13;;;;;;;48.03;17.48;;;0.40;99.90;;;;;;5093430;28;20024;-76
2021/04/13 05:09:39;;;;;;;32.40;12.60;;;0.40;99.90;;;;;;5087088;28;20024;-77
2021/04/13 05:12:06;;;;;;;447.77;149.68;;;0.40;99.90;;;;;;5093143;28;20478;-77
2021/04/13 05:14:32;;;;;;;126.25;41.80;;;0.40;99.90;;;;;;5091681;28;20024;-77
2021/04/13 05:16:58;;;;;;;14.65;8.27;;;0.30;99.90;;;;;;5092294;28;20104;-78
2021/04/13 05:19:23;;;;;;;37.60;16.98;;;0.40;99.90;;;;;;5092761;28;20035;-77
2021/04/13 05:21:49;;;;;;;396.88;136.75;;;0.30;99.90;;;;;;5091675;28;20019;-77
2021/04/13 05:24:15;;;;;;;78.30;28.73;;;0.30;99.90;;;;;;5090468;28;20547;-77
2021/04/13 05:26:41;;;;;;;394.67;135.82;;;0.30;99.90;;;;;;5102338;28;20037;-78
2021/04/13 05:29:07;;;;;;;17.15;9.85;;;0.30;99.90;;;;;;5100717;28;20537;-77
2021/04/13 05:31:39;;;;;;;265.45;94.00;;;0.30;99.90;;;;;;5100994;28;20016;-77
2021/04/13 05:34:04;;;;;;;7.82;5.50;;;0.40;99.90;;;;;;5098209;28;20024;-77
2021/04/13 05:36:31;;;;;;;11.80;7.28;;;0.30;99.90;;;;;;5102141;28;20389;-77
2021/04/13 05:38:57;;;;;;;8.35;6.03;;;0.20;99.90;;;;;;5102108;28;20068;-76
2021/04/13 05:41:23;;;;;;;11.93;9.75;;;0.30;99.90;;;;;;5101290;28;20012;-77
2021/04/13 05:43:49;;;;;;;6.50;4.70;;;0.30;99.90;;;;;;5084260;28;20374;-77
2021/04/13 05:46:19;;;;;;;13.43;8.40;;;0.30;99.90;;;;;;5102648;28;20385;-75
2021/04/13 05:48:45;;;;;;;5.18;4.68;;;0.40;99.90;;;;;;5087111;28;20017;-75
2021/04/13 05:51:11;;;;;;;4.88;3.90;;;0.40;99.90;;;;;;5091716;28;20040;-77
2021/04/13 05:53:36;;;;;;;5.95;4.10;;;0.40;99.90;;;;;;5097117;28;20523;-75
2021/04/13 05:56:02;;;;;;;5.60;3.92;;;0.40;99.90;;;;;;5097233;28;20012;-76
2021/04/13 05:58:45;;;;;;;6.10;3.60;;;0.50;99.90;;;;;;5095644;28;20068;-77
2021/04/13 06:01:12;;;;;;;4.18;3.83;;;0.50;99.90;;;;;;5095515;28;20063;-75
2021/04/13 06:03:37;;;;;;;5.70;3.78;;;0.50;99.90;;;;;;5100630;28;20044;-77
2021/04/13 06:06:03;;;;;;;4.80;2.97;;;0.50;99.90;;;;;;5099909;28;20023;-77
2021/04/13 06:08:29;;;;;;;3.28;2.97;;;0.60;99.90;;;;;;5096729;28;20113;-77
2021/04/13 06:10:58;;;;;;;4.00;3.60;;;0.60;99.90;;;;;;5090462;28;20139;-77
2021/04/13 06:13:26;;;;;;;4.45;3.60;;;0.60;99.90;;;;;;5101070;28;20085;-77
2021/04/13 06:15:56;;;;;;;4.68;4.18;;;0.70;99.90;;;;;;5098057;28;20473;-77
2021/04/13 06:18:23;;;;;;;45.03;17.65;;;0.70;99.90;;;;;;5092263;28;20028;-77
2021/04/13 06:20:49;;;;;;;8.70;6.05;;;0.90;99.90;;;;;;5104029;28;20022;-77
2021/04/13 06:23:15;;;;;;;7.20;5.13;;;0.90;99.90;;;;;;5092104;28;20043;-77
2021/04/13 06:25:41;;;;;;;6.28;5.13;;;0.80;99.90;;;;;;5091068;28;20118;-76
2021/04/13 06:28:07;;;;;;;9.02;5.25;;;0.80;99.90;;;;;;5102219;28;20433;-78
2021/04/13 06:30:33;;;;;;;7.57;5.72;;;0.80;99.90;;;;;;5114040;28;20070;-78
2021/04/13 06:32:59;;;;;;;8.50;5.88;;;0.80;99.90;;;;;;5115063;28;20459;-77
2021/04/13 06:35:26;;;;;;;6.75;5.00;;;0.80;99.90;;;;;;5103896;28;20015;-77
2021/04/13 06:37:54;;;;;;;8.95;8.00;;;0.80;99.90;;;;;;5102966;28;20020;-82
2021/04/13 06:40:49;;;;;;;6.90;5.45;;;0.90;99.90;;;;;;5101617;28;20031;-78
2021/04/13 06:43:53;;;;;;;11.93;6.82;;;0.90;99.90;;;;;;5074614;28;20040;-78
2021/04/13 06:46:39;;;;;;;7.50;5.72;;;0.90;99.90;;;;;;5072736;28;20511;-78
2021/04/13 06:49:24;;;;;;;8.80;5.05;;;0.80;99.90;;;;;;5095763;28;20435;-79
2021/04/13 06:52:28;;;;;;;8.02;4.10;;;0.90;99.90;;;;;;5089407;28;20657;-78
2021/04/13 06:55:08;;;;;;;7.05;4.47;;;0.80;99.90;;;;;;5095888;28;20252;-79
2021/04/13 06:57:52;;;;;;;6.60;5.05;;;1.00;99.90;;;;;;5110208;28;20465;-79
2021/04/13 07:00:56;;;;;;;4.72;3.75;;;1.00;99.90;;;;;;5113952;28;20088;-80
2021/04/13 07:03:33;;;;;;;5.95;4.82;;;1.00;99.90;;;;;;5110609;28;20061;-79
2021/04/13 07:06:02;;;;;;;8.73;5.25;;;1.10;99.90;;;;;;5102198;28;20032;-78
2021/04/13 07:08:42;;;;;;;11.93;7.18;;;1.10;99.90;;;;;;5088882;28;20013;-79
2021/04/13 07:11:17;;;;;;;11.63;6.60;;;1.20;99.90;;;;;;5093211;28;20028;-80
2021/04/13 07:13:54;;;;;;;8.38;4.53;;;1.40;99.90;;;;;;5091265;28;20107;-79
2021/04/13 07:16:37;;;;;;;8.07;5.38;;;1.40;99.90;;;;;;5087118;28;20478;-84
2021/04/13 07:19:31;;;;;;;3.97;3.58;;;1.40;99.90;;;;;;5092253;28;20047;-80
2021/04/13 07:22:27;;;;;;;4.25;3.85;;;1.30;99.90;;;;;;5093049;28;20564;-79
2021/04/13 07:25:19;;;;;;;7.22;4.28;;;1.20;99.90;;;;;;5099866;28;20036;-81
2021/04/13 07:27:53;;;;;;;5.75;3.95;;;1.20;99.90;;;;;;5087730;28;20028;-77
2021/04/13 07:30:38;;;;;;;7.68;6.05;;;1.30;99.90;;;;;;5092904;28;20024;-78
2021/04/13 07:33:06;;;;;;;11.80;8.52;;;1.40;99.90;;;;;;5089981;28;20020;-79
2021/04/13 07:35:35;;;;;;;11.77;9.15;;;1.50;99.90;;;;;;5090170;28;20108;-78
2021/04/13 07:38:24;;;;;;;6.63;5.50;;;1.40;99.90;;;;;;5073162;28;20033;-80
2021/04/13 07:40:53;;;;;;;6.35;5.25;;;1.40;99.90;;;;;;5072873;28;20478;-77
2021/04/13 07:43:22;;;;;;;10.93;6.22;;;1.50;99.90;;;;;;5102753;28;20043;-78
2021/04/13 07:46:09;;;;;;;11.32;4.78;;;1.50;99.90;;;;;;5082145;28;20440;-79
2021/04/13 07:49:08;;;;;;;9.32;6.47;;;1.40;99.90;;;;;;5074080;28;20082;-80
2021/04/13 07:51:46;;;;;;;5.68;4.80;;;1.40;99.90;;;;;;5070983;28;20025;-80
2021/04/13 07:54:30;;;;;;;17.67;8.90;;;1.40;99.90;;;;;;5073996;28;20386;-79
2021/04/13 07:57:08;;;;;;;7.88;5.43;;;1.50;99.90;;;;;;5091762;28;20032;-78
2021/04/13 08:00:22;;;;;;;13.93;8.32;;;1.50;99.90;;;;;;5091989;28;20069;-79
2021/04/13 08:03:15;;;;;;;12.80;7.43;;;1.70;99.90;;;;;;5034242;28;20025;-78
2021/04/13 08:05:44;;;;;;;10.85;7.50;;;1.80;99.90;;;;;;5034685;28;20102;-79
2021/04/13 08:08:33;;;;;;;16.13;7.57;;;1.90;99.90;;;;;;5069750;28;20062;-78
2021/04/13 08:11:18;;;;;;;10.73;6.85;;;1.80;99.90;;;;;;5091041;28;20028;-79
2021/04/13 08:13:47;;;;;;;6.13;5.50;;;1.70;99.90;;;;;;5092375;28;20488;-79
2021/04/13 08:16:27;;;;;;;7.43;6.03;;;1.50;99.90;;;;;;5093818;28;20457;-79
2021/04/13 08:19:08;;;;;;;7.72;6.03;;;1.60;99.90;;;;;;5088695;28;20039;-79
2021/04/13 08:21:35;;;;;;;6.90;6.15;;;1.40;99.90;;;;;;5092090;28;20019;-78
2021/04/13 08:24:01;;;;;;;8.23;5.80;;;1.50;99.90;;;;;;5103919;28;20042;-81
2021/04/13 08:26:29;;;;;;;9.35;6.00;;;1.30;99.90;;;;;;5114114;28;20392;-77
2021/04/13 08:28:56;;;;;;;10.00;6.18;;;1.30;99.90;;;;;;5109921;28;20183;-78
2021/04/13 08:34:24;;;;;;;9.87;6.67;;;1.40;99.90;;;;;;5097099;28;20018;-79
2021/04/13 08:37:11;;;;;;;6.75;5.53;;;1.40;99.90;;;;;;5090786;28;20332;-78
2021/04/13 08:39:45;;;;;;;8.60;6.20;;;1.20;99.90;;;;;;5093243;28;20065;-77
2021/04/13 08:42:30;;;;;;;10.50;6.93;;;1.10;99.90;;;;;;5103113;28;20484;-77
2021/04/13 08:45:16;;;;;;;10.20;6.28;;;1.10;99.90;;;;;;5109530;28;20050;-77
2021/04/13 08:47:52;;;;;;;14.63;8.23;;;1.00;99.90;;;;;;5100746;28;20034;-77
2021/04/13 08:50:34;;;;;;;8.77;6.25;;;1.20;99.90;;;;;;5087945;28;20509;-77
2021/04/13 08:53:23;;;;;;;16.23;8.07;;;1.30;99.90;;;;;;5087209;28;20028;-77
2021/04/13 08:55:49;;;;;;;7.63;6.50;;;1.40;99.90;;;;;;5090779;28;20039;-77
2021/04/13 08:58:36;;;;;;;10.13;5.82;;;1.50;99.90;;;;;;5113494;28;20469;-79
2021/04/13 09:01:19;;;;;;;11.68;7.25;;;1.40;99.90;;;;;;5087757;28;20039;-78
2021/04/13 09:03:47;;;;;;;10.38;6.80;;;1.60;99.90;;;;;;5080589;28;20040;-78
2021/04/13 09:06:20;;;;;;;12.52;7.22;;;1.70;99.90;;;;;;5083771;28;20024;-78
2021/04/13 09:08:54;;;;;;;8.93;6.40;;;1.70;99.90;;;;;;5082413;28;20028;-78
2021/04/13 09:11:45;;;;;;;7.30;4.60;;;1.50;99.90;;;;;;5087347;28;20040;-79
2021/04/13 09:14:40;;;;;;;6.18;3.97;;;1.40;99.90;;;;;;5053799;28;20044;-77
2021/04/13 09:17:35;;;;;;;9.10;6.20;;;1.40;99.90;;;;;;5068112;28;20082;-78
2021/04/13 09:20:29;;;;;;;11.45;7.20;;;1.50;99.90;;;;;;5068351;28;20032;-80
2021/04/13 09:23:26;;;;;;;13.57;5.78;;;1.40;99.90;;;;;;5063939;28;20552;-79
2021/04/13 09:25:54;;;;;;;6.50;3.60;;;1.50;99.90;;;;;;5064927;28;20075;-78
2021/04/13 09:28:23;;;;;;;5.70;5.05;;;1.40;99.90;;;;;;5071632;28;20039;-79
2021/04/13 09:31:10;;;;;;;8.10;6.20;;;1.40;99.90;;;;;;5088608;28;20392;-79
2021/04/13 09:33:43;;;;;;;12.95;8.77;;;1.60;99.90;;;;;;5076377;28;20035;-80
2021/04/13 09:36:43;;;;;;;8.60;5.95;;;1.60;99.90;;;;;;5087897;28;20031;-79
2021/04/13 09:39:30;;;;;;;10.75;6.65;;;1.60;99.90;;;;;;5071230;28;20017;-79
2021/04/13 09:41:58;;;;;;;8.73;5.10;;;1.70;99.90;;;;;;5070562;28;20393;-78
2021/04/13 09:44:42;;;;;;;8.57;6.13;;;1.70;99.90;;;;;;5069568;28;20127;-79
2021/04/13 09:47:33;;;;;;;7.13;5.85;;;1.70;99.90;;;;;;5076579;28;20047;-79
2021/04/13 09:50:04;;;;;;;11.13;8.93;;;1.80;99.90;;;;;;5083855;28;20032;-78
2021/04/13 09:52:38;;;;;;;17.13;9.52;;;1.80;99.90;;;;;;5090083;28;20024;-78
2021/04/13 09:55:18;;;;;;;10.35;6.55;;;2.00;99.90;;;;;;5091130;28;20031;-79
2021/04/13 09:58:10;;;;;;;9.75;7.13;;;2.00;99.90;;;;;;5090337;28;20473;-78
2021/04/13 10:01:14;;;;;;;9.57;5.80;;;2.10;99.90;;;;;;5064252;28;20040;-78
2021/04/13 10:04:01;;;;;;;7.35;6.20;;;2.00;99.90;;;;;;5074183;28;20037;-79
2021/04/13 10:06:31;;;;;;;12.05;7.22;;;2.00;99.90;;;;;;5074975;28;20486;-79
2021/04/13 10:09:23;;;;;;;16.00;7.20;;;2.10;99.90;;;;;;5075055;28;20024;-80
2021/04/13 10:12:00;;;;;;;8.65;6.15;;;2.10;99.90;;;;;;5070527;28;20032;-79
2021/04/13 10:14:44;;;;;;;10.68;7.13;;;2.30;99.90;;;;;;5076837;28;20017;-79
2021/04/13 10:17:35;;;;;;;13.63;6.53;;;2.40;99.90;;;;;;5095189;28;20028;-78
2021/04/13 10:20:29;;;;;;;14.07;8.45;;;2.30;99.90;;;;;;5094971;28;20060;-78
2021/04/13 10:23:32;;;;;;;12.23;7.32;;;2.50;99.90;;;;;;5090400;28;20024;-78
2021/04/13 10:26:31;;;;;;;9.20;6.53;;;2.50;99.90;;;;;;5095534;28;20056;-78
2021/04/13 10:29:15;;;;;;;10.25;7.38;;;2.50;99.90;;;;;;5088685;28;20120;-79
2021/04/13 10:32:08;;;;;;;8.48;7.05;;;2.60;99.90;;;;;;5091433;28;20131;-78
2021/04/13 10:34:57;;;;;;;19.52;10.18;;;2.40;99.90;;;;;;5074651;28;20516;-81
2021/04/13 10:37:34;;;;;;;9.48;6.90;;;2.40;99.90;;;;;;5085531;28;20470;-78
2021/04/13 10:40:37;;;;;;;8.85;6.72;;;2.60;99.90;;;;;;5075615;28;20063;-79
2021/04/13 10:43:24;;;;;;;9.50;6.40;;;2.50;99.90;;;;;;5086127;28;20028;-78
2021/04/13 10:46:00;;;;;;;28.05;12.18;;;2.50;99.90;;;;;;5082039;28;20032;-78
2021/04/13 10:48:48;;;;;;;12.85;8.23;;;2.70;99.90;;;;;;5074301;28;20055;-78
2021/04/13 10:51:33;;;;;;;31.88;14.52;;;2.60;99.90;;;;;;5096510;28;20446;-78
2021/04/13 10:54:43;;;;;;;15.20;9.40;;;2.50;99.90;;;;;;5085881;28;20028;-80
2021/04/13 10:57:37;;;;;;;12.30;7.93;;;2.40;99.90;;;;;;5069136;28;20100;-78
2021/04/13 11:00:34;;;;;;;18.75;10.90;;;2.50;99.90;;;;;;5092585;28;20035;-77
2021/04/13 11:03:22;;;;;;;14.20;9.57;;;2.30;99.90;;;;;;5091189;28;20110;-78
2021/04/13 11:06:26;;;;;;;8.25;6.45;;;2.40;99.90;;;;;;5107670;27;20077;-78
2021/04/13 11:09:03;;;;;;;9.00;6.40;;;2.40;99.90;;;;;;5095375;28;20119;-79
2021/04/13 11:11:38;;;;;;;12.07;6.85;;;2.50;99.90;;;;;;5095102;28;20385;-78
2021/04/13 11:14:13;;;;;;;9.30;7.75;;;2.60;99.90;;;;;;5092794;28;20031;-78
2021/04/13 11:17:16;;;;;;;14.57;7.75;;;2.60;99.90;;;;;;5093282;28;20024;-79
2021/04/13 11:20:07;;;;;;;9.38;8.40;;;2.70;99.90;;;;;;5101300;28;20050;-78
2021/04/13 11:22:38;;;;;;;10.98;7.22;;;2.80;99.90;;;;;;5095609;28;20374;-77
2021/04/13 11:25:18;;;;;;;12.32;7.65;;;2.80;99.90;;;;;;5098397;28;20043;-77
2021/04/13 11:28:04;;;;;;;12.40;7.97;;;2.80;99.90;;;;;;5086654;28;20028;-78
2021/04/13 11:30:45;;;;;;;11.60;7.95;;;2.80;99.90;;;;;;5087622;28;20036;-77
2021/04/13 11:33:31;;;;;;;13.70;9.20;;;2.90;99.90;;;;;;5097899;28;20028;-78
2021/04/13 11:36:31;;;;;;;17.15;9.73;;;3.00;99.90;;;;;;5094950;28;20098;-78
2021/04/13 11:39:23;;;;;;;15.77;9.63;;;3.10;99.90;;;;;;5088729;28;20566;-78
2021/04/13 11:42:00;;;;;;;10.38;7.78;;;3.30;99.90;;;;;;5078853;28;20032;-78
2021/04/13 11:44:38;;;;;;;14.32;8.20;;;3.20;99.90;;;;;;5091993;28;20564;-78
2021/04/13 11:47:32;;;;;;;16.92;11.38;;;3.30;99.90;;;;;;5095604;28;20516;-75
2021/04/13 11:50:01;;;;;;;;;;;3.30;99.90;;;;;;5088507;28;20076;-74
2021/04/13 11:52:52;;;;;;;10.30;7.05;;;3.20;99.90;;;;;;5092855;28;19911;-75
2021/04/13 11:55:27;;;;;;;12.68;7.05;;;3.20;99.90;;;;;;5091462;28;20045;-77
2021/04/13 11:58:07;;;;;;;10.40;6.38;;;3.00;99.90;;;;;;5091940;28;20081;-77
2021/04/13 12:00:33;;;;;;;10.85;7.82;;;3.00;99.90;;;;;;5093004;28;20028;-77
2021/04/13 12:03:23;;;;;;;13.75;9.18;;;3.10;99.90;;;;;;5091627;28;20021;-78
2021/04/13 12:05:54;;;;;;;11.65;8.07;;;3.10;99.90;;;;;;5091119;28;20576;-77
2021/04/13 12:08:29;;;;;;;13.40;8.00;;;3.40;99.90;;;;;;5091920;28;20020;-78
2021/04/13 12:10:57;;;;;;;10.80;6.43;;;3.40;99.90;;;;;;5092773;28;20077;-77
2021/04/13 12:13:46;;;;;;;9.18;6.22;;;3.20;99.80;;;;;;5093413;28;20024;-78
2021/04/13 12:16:20;;;;;;;12.43;8.65;;;3.40;99.90;;;;;;5093174;28;20017;-78
2021/04/13 12:19:14;;;;;;;11.07;6.63;;;3.50;99.90;;;;;;5089800;28;20362;-77
2021/04/13 12:21:49;;;;;;;;;;;3.50;99.90;;;;;;5082137;28;20040;-78
2021/04/13 12:24:39;;;;;;;13.27;7.38;;;3.50;99.90;;;;;;5091031;28;20010;-77
2021/04/13 12:27:27;;;;;;;10.77;6.82;;;3.50;99.90;;;;;;5094118;28;20426;-77
2021/04/13 12:30:25;;;;;;;10.48;6.38;;;3.30;99.90;;;;;;5096978;28;20036;-78
2021/04/13 12:32:51;;;;;;;9.60;7.03;;;3.30;99.90;;;;;;5099784;28;20035;-78
2021/04/13 12:35:48;;;;;;;14.43;9.23;;;3.20;99.90;;;;;;5103395;28;20016;-78
2021/04/13 12:38:42;;;;;;;14.55;9.55;;;3.10;99.90;;;;;;5099959;28;20015;-77
2021/04/13 12:41:17;;;;;;;15.23;11.00;;;3.10;99.90;;;;;;5106853;27;20020;-78
2021/04/13 12:43:55;;;;;;;13.77;8.40;;;3.10;99.90;;;;;;5092735;28;20047;-78
2021/04/13 12:46:36;;;;;;;16.17;9.95;;;3.00;99.90;;;;;;5094877;28;20118;-78
2021/04/13 12:49:11;;;;;;;13.40;9.07;;;3.10;99.90;;;;;;5091415;28;20478;-78
2021/04/13 12:51:55;;;;;;;10.52;6.57;;;3.00;99.90;;;;;;5091140;28;20486;-78
2021/04/13 12:54:29;;;;;;;13.38;7.05;;;3.00;99.90;;;;;;5092414;28;20028;-78
2021/04/13 12:57:05;;;;;;;10.90;7.15;;;3.00;99.90;;;;;;5090303;28;20209;-77
2021/04/13 12:59:32;;;;;;;11.23;8.13;;;3.00;99.90;;;;;;5091121;28;20044;-77
2021/04/13 13:01:58;;;;;;;16.42;9.85;;;3.20;99.90;;;;;;5087945;28;20489;-78
2021/04/13 13:04:37;;;;;;;14.85;8.20;;;3.20;99.90;;;;;;5088734;28;20038;-78
2021/04/13 13:07:06;;;;;;;21.45;11.32;;;3.30;99.90;;;;;;5089604;28;20161;-78
2021/04/13 13:09:39;;;;;;;16.90;9.32;;;3.50;99.90;;;;;;5089122;28;20545;-77
2021/04/13 13:12:20;;;;;;;14.27;8.45;;;3.40;99.90;;;;;;5089500;28;20020;-77
2021/04/13 13:14:49;;;;;;;15.35;9.73;;;3.30;99.90;;;;;;5099265;28;20020;-77
2021/04/13 13:17:38;;;;;;;8.65;7.13;;;3.30;99.90;;;;;;5101566;28;20116;-78
2021/04/13 13:20:07;;;;;;;27.45;14.50;;;3.20;99.90;;;;;;5092802;28;20036;-78
2021/04/13 13:22:34;;;;;;;23.60;14.77;;;3.10;99.90;;;;;;5090028;28;20433;-78
2021/04/13 13:25:15;;;;;;;23.83;12.48;;;3.10;99.90;;;;;;5094472;28;20058;-78
2021/04/13 13:27:40;;;;;;;60.42;46.13;;;3.00;99.90;;;;;;5102631;28;20030;-78
2021/04/13 13:30:10;;;;;;;25.33;14.70;;;3.20;99.90;;;;;;5101370;28;20017;-78
2021/04/13 13:32:36;;;;;;;18.75;10.35;;;3.30;99.90;;;;;;5104768;28;20030;-78
2021/04/13 13:35:05;;;;;;;15.88;9.57;;;3.30;99.90;;;;;;5102857;28;20025;-78
2021/04/13 13:37:40;;;;;;;14.27;8.68;;;3.20;99.90;;;;;;5095478;28;20055;-78
2021/04/13 13:40:15;;;;;;;17.15;9.70;;;3.20;99.90;;;;;;5094555;28;20031;-77
2021/04/13 13:42:41;;;;;;;10.95;8.20;;;3.20;99.90;;;;;;5092295;28;20083;-78
2021/04/13 13:45:20;;;;;;;14.18;8.55;;;3.30;99.90;;;;;;5101812;28;20030;-78
2021/04/13 13:47:46;;;;;;;25.63;13.13;;;3.40;99.90;;;;;;5099981;28;20012;-77